Terminal Aerodrome Forecast
Issued by NWS

Home | Current Version | Previous Version | Graphics & Text | Print | Product List | Glossary On
Versions: 1 2 3 4 5 6 7 8 9 10 11 12 13 14 15 16
000
FTUS43 KGRB 201100 RRA
TAFATW
TAF
KATW 201144Z 2012/2112 19009KT P6SM SCT050 OVC080 WS012/23035KT
      TEMPO 2012/2014 -SHRA
     FM201400 21009KT P6SM BKN040 OVC070
      TEMPO 2014/2016 -SHRA
     FM210000 14005KT P6SM -SHRA BKN035 OVC050
     FM210600 VRB03KT 4SM -SHRA BR BKN020 OVC035
      TEMPO 2109/2112 2SM -SHRA BR BKN012=

USA.gov is the U.S. government's official web portal to all federal, state and local government web resources and services.